sensor_id;sensor_type;location;lat;lon;timestamp;pressure;altitude;pressure_sealevel;temperature;humidity
54038;BME280;39954;48.844;9.726;2023-04-01T00:01:01;94749.44;;;6.00;100.00
54038;BME280;39954;48.844;9.726;2023-04-01T00:02:06;94751.19;;;6.00;100.00
54038;BME280;39954;48.844;9.726;2023-04-01T00:03:08;94750.47;;;5.98;100.00
54038;BME280;39954;48.844;9.726;2023-04-01T00:04:13;94747.25;;;5.94;100.00
54038;BME280;39954;48.844;9.726;2023-04-01T00:05:18;94745.50;;;5.95;100.00
54038;BME280;39954;48.844;9.726;2023-04-01T00:06:20;94742.25;;;5.91;100.00
54038;BME280;39954;48.844;9.726;2023-04-01T00:07:27;94754.06;;;5.95;100.00
54038;BME280;39954;48.844;9.726;2023-04-01T00:08:31;94753.78;;;6.00;100.00
54038;BME280;39954;48.844;9.726;2023-04-01T00:09:36;94754.69;;;5.99;100.00
54038;BME280;39954;48.844;9.726;2023-04-01T00:10:39;94746.13;;;5.98;100.00
54038;BME280;39954;48.844;9.726;2023-04-01T00:11:43;94752.41;;;5.94;100.00
54038;BME280;39954;48.844;9.726;2023-04-01T00:12:47;94746.22;;;5.97;100.00
54038;BME280;39954;48.844;9.726;2023-04-01T00:13:51;94736.16;;;5.92;100.00
54038;BME280;39954;48.844;9.726;2023-04-01T00:14:53;94749.81;;;5.94;100.00
54038;BME280;39954;48.844;9.726;2023-04-01T00:15:58;94752.97;;;5.99;100.00
54038;BME280;39954;48.844;9.726;2023-04-01T00:17:00;94747.97;;;5.96;100.00
54038;BME280;39954;48.844;9.726;2023-04-01T00:18:05;94748.53;;;6.01;100.00
54038;BME280;39954;48.844;9.726;2023-04-01T00:19:08;94743.53;;;5.98;100.00
54038;BME280;39954;48.844;9.726;2023-04-01T00:20:13;94745.31;;;5.98;100.00
54038;BME280;39954;48.844;9.726;2023-04-01T00:21:16;94746.13;;;5.98;100.00
54038;BME280;39954;48.844;9.726;2023-04-01T00:22:22;94747.25;;;5.94;100.00
54038;BME280;39954;48.844;9.726;2023-04-01T00:23:26;94741.97;;;5.96;100.00
54038;BME280;39954;48.844;9.726;2023-04-01T00:24:31;94748.16;;;5.93;100.00
54038;BME280;39954;48.844;9.726;2023-04-01T00:25:33;94737.66;;;5.96;100.00
54038;BME280;39954;48.844;9.726;2023-04-01T00:26:38;94745.22;;;5.99;100.00
54038;BME280;39954;48.844;9.726;2023-04-01T00:27:40;94747.81;;;5.99;100.00
54038;BME280;39954;48.844;9.726;2023-04-01T00:28:45;94748.31;;;6.04;100.00
54038;BME280;39954;48.844;9.726;2023-04-01T00:29:47;94738.75;;;6.07;100.00
54038;BME280;39954;48.844;9.726;2023-04-01T00:30:52;94745.56;;;6.08;100.00
54038;BME280;39954;48.844;9.726;2023-04-01T00:31:54;94743.72;;;6.10;100.00
54038;BME280;39954;48.844;9.726;2023-04-01T00:32:58;94739.94;;;6.15;100.00
54038;BME280;39954;48.844;9.726;2023-04-01T00:34:00;94736.81;;;6.10;100.00
54038;BME280;39954;48.844;9.726;2023-04-01T00:35:06;94738.75;;;6.07;100.00
54038;BME280;39954;48.844;9.726;2023-04-01T00:36:10;94740.97;;;6.13;100.00
54038;BME280;39954;48.844;9.726;2023-04-01T00:37:16;94749.53;;;6.13;100.00
54038;BME280;39954;48.844;9.726;2023-04-01T00:38:18;94747.88;;;6.12;100.00
54038;BME280;39954;48.844;9.726;2023-04-01T00:39:28;94739.69;;;6.20;100.00
54038;BME280;39954;48.844;9.726;2023-04-01T00:40:32;94731.38;;;6.15;100.00
54038;BME280;39954;48.844;9.726;2023-04-01T00:41:37;94744.38;;;6.13;100.00
54038;BME280;39954;48.844;9.726;2023-04-01T00:42:39;94734.03;;;6.13;100.00
54038;BME280;39954;48.844;9.726;2023-04-01T00:43:46;94745.22;;;6.14;100.00
54038;BME280;39954;48.844;9.726;2023-04-01T00:44:53;94737.19;;;6.18;100.00
54038;BME280;39954;48.844;9.726;2023-04-01T00:45:55;94741.50;;;6.18;100.00
54038;BME280;39954;48.844;9.726;2023-04-01T00:47:00;94730.56;;;6.14;100.00
54038;BME280;39954;48.844;9.726;2023-04-01T00:48:05;94739.88;;;6.17;100.00
54038;BME280;39954;48.844;9.726;2023-04-01T00:50:18;94737.38;;;6.15;100.00
54038;BME280;39954;48.844;9.726;2023-04-01T00:51:26;94733.97;;;6.15;100.00
54038;BME280;39954;48.844;9.726;2023-04-01T00:52:42;94732.22;;;6.15;100.00
54038;BME280;39954;48.844;9.726;2023-04-01T00:53:52;94731.13;;;6.19;100.00
54038;BME280;39954;48.844;9.726;2023-04-01T00:55:13;94718.22;;;6.19;100.00
54038;BME280;39954;48.844;9.726;2023-04-01T00:56:24;94736.16;;;6.21;100.00
54038;BME280;39954;48.844;9.726;2023-04-01T00:57:35;94726.84;;;6.18;100.00
54038;BME280;39954;48.844;9.726;2023-04-01T00:58:49;94734.53;;;6.20;100.00
54038;BME280;39954;48.844;9.726;2023-04-01T00:59:58;94726.84;;;6.18;100.00
54038;BME280;39954;48.844;9.726;2023-04-01T01:01:06;94735.53;;;6.17;100.00
54038;BME280;39954;48.844;9.726;2023-04-01T01:02:27;94731.19;;;6.18;100.00
54038;BME280;39954;48.844;9.726;2023-04-01T01:03:34;94733.13;;;6.14;100.00
54038;BME280;39954;48.844;9.726;2023-04-01T01:04:42;94733.03;;;6.16;100.00
54038;BME280;39954;48.844;9.726;2023-04-01T01:05:59;94733.22;;;6.13;100.00
54038;BME280;39954;48.844;9.726;2023-04-01T01:07:18;94733.22;;;6.13;100.00
54038;BME280;39954;48.844;9.726;2023-04-01T01:08:33;94736.53;;;6.15;100.00
54038;BME280;39954;48.844;9.726;2023-04-01T01:09:54;94735.63;;;6.16;100.00
54038;BME280;39954;48.844;9.726;2023-04-01T01:11:03;94724.78;;;6.11;100.00
54038;BME280;39954;48.844;9.726;2023-04-01T01:12:13;94732.03;;;6.18;100.00
54038;BME280;39954;48.844;9.726;2023-04-01T01:13:25;94729.34;;;6.20;100.00
54038;BME280;39954;48.844;9.726;2023-04-01T01:14:49;94739.38;;;6.24;100.00
54038;BME280;39954;48.844;9.726;2023-04-01T01:16:01;94737.66;;;6.25;100.00
54038;BME280;39954;48.844;9.726;2023-04-01T01:17:14;94731.75;;;6.23;100.00
54038;BME280;39954;48.844;9.726;2023-04-01T01:18:30;94729.34;;;6.20;100.00
54038;BME280;39954;48.844;9.726;2023-04-01T01:22:09;94733.50;;;6.22;100.00
54038;BME280;39954;48.844;9.726;2023-04-01T01:23:47;94726.47;;;6.24;100.00
54038;BME280;39954;48.844;9.726;2023-04-01T01:25:19;94728.63;;;6.18;100.00
54038;BME280;39954;48.844;9.726;2023-04-01T01:26:47;94740.69;;;6.17;100.00
54038;BME280;39954;48.844;9.726;2023-04-01T01:28:00;94727.16;;;6.14;100.00
54038;BME280;39954;48.844;9.726;2023-04-01T01:29:27;94728.44;;;6.07;100.00
54038;BME280;39954;48.844;9.726;2023-04-01T01:30:37;94729.06;;;6.10;100.00
54038;BME280;39954;48.844;9.726;2023-04-01T01:31:53;94721.53;;;6.07;100.00
54038;BME280;39954;48.844;9.726;2023-04-01T01:35:15;94733.78;;;6.03;100.00
54038;BME280;39954;48.844;9.726;2023-04-01T01:36:28;94737.94;;;6.06;100.00
54038;BME280;39954;48.844;9.726;2023-04-01T01:37:39;94732.13;;;6.02;100.00
54038;BME280;39954;48.844;9.726;2023-04-01T01:38:45;94737.13;;;6.05;100.00
54038;BME280;39954;48.844;9.726;2023-04-01T01:39:55;94730.28;;;6.04;100.00
54038;BME280;39954;48.844;9.726;2023-04-01T01:41:01;94723.28;;;6.07;100.00
54038;BME280;39954;48.844;9.726;2023-04-01T01:42:11;94731.94;;;6.05;100.00
54038;BME280;39954;48.844;9.726;2023-04-01T01:43:21;94727.81;;;6.03;100.00
54038;BME280;39954;48.844;9.726;2023-04-01T01:44:31;94732.22;;;6.01;100.00
54038;BME280;39954;48.844;9.726;2023-04-01T01:45:40;94718.88;;;5.94;100.00
54038;BME280;39954;48.844;9.726;2023-04-01T01:46:50;94723.22;;;5.94;100.00
54038;BME280;39954;48.844;9.726;2023-04-01T01:47:55;94730.84;;;5.95;100.00
54038;BME280;39954;48.844;9.726;2023-04-01T01:49:05;94722.34;;;5.93;100.00
54038;BME280;39954;48.844;9.726;2023-04-01T01:50:15;94728.50;;;5.91;100.00
54038;BME280;39954;48.844;9.726;2023-04-01T01:51:22;94726.09;;;5.88;100.00
54038;BME280;39954;48.844;9.726;2023-04-01T01:52:29;94722.88;;;5.84;100.00
54038;BME280;39954;48.844;9.726;2023-04-01T01:53:33;94723.81;;;5.83;100.00
54038;BME280;39954;48.844;9.726;2023-04-01T01:54:47;94729.53;;;5.88;100.00
54038;BME280;39954;48.844;9.726;2023-04-01T01:55:51;94721.97;;;5.85;100.00
54038;BME280;39954;48.844;9.726;2023-04-01T01:57:03;94729.81;;;5.83;100.00
54038;BME280;39954;48.844;9.726;2023-04-01T01:58:12;94727.84;;;5.87;100.00
54038;BME280;39954;48.844;9.726;2023-04-01T01:59:21;94724.38;;;5.88;100.00
54038;BME280;39954;48.844;9.726;2023-04-01T02:00:28;94724.19;;;5.91;100.00
54038;BME280;39954;48.844;9.726;2023-04-01T02:01:38;94725.19;;;5.89;100.00
54038;BME280;39954;48.844;9.726;2023-04-01T02:02:48;94714.22;;;5.85;100.00
54038;BME280;39954;48.844;9.726;2023-04-01T02:03:53;94732.94;;;5.89;100.00
54038;BME280;39954;48.844;9.726;2023-04-01T02:05:01;94712.19;;;5.90;100.00
54038;BME280;39954;48.844;9.726;2023-04-01T02:06:11;94724.19;;;5.91;100.00
54038;BME280;39954;48.844;9.726;2023-04-01T02:07:23;94719.22;;;5.88;100.00
54038;BME280;39954;48.844;9.726;2023-04-01T02:08:32;94720.94;;;5.88;100.00
54038;BME280;39954;48.844;9.726;2023-04-01T02:09:41;94727.84;;;5.87;100.00
54038;BME280;39954;48.844;9.726;2023-04-01T02:10:50;94716.53;;;5.90;100.00
54038;BME280;39954;48.844;9.726;2023-04-01T02:12:04;94713.41;;;5.84;100.00
54038;BME280;39954;48.844;9.726;2023-04-01T02:13:15;94733.00;;;5.87;100.00
54038;BME280;39954;48.844;9.726;2023-04-01T02:14:24;94721.50;;;5.93;100.00
54038;BME280;39954;48.844;9.726;2023-04-01T02:15:31;94729.69;;;5.85;100.00
54038;BME280;39954;48.844;9.726;2023-04-01T02:16:45;94727.41;;;5.80;100.00
54038;BME280;39954;48.844;9.726;2023-04-01T02:18:18;94719.19;;;5.74;100.00
54038;BME280;39954;48.844;9.726;2023-04-01T02:19:33;94737.22;;;5.74;100.00
54038;BME280;39954;48.844;9.726;2023-04-01T02:20:40;94725.47;;;5.70;100.00
54038;BME280;39954;48.844;9.726;2023-04-01T02:21:54;94726.66;;;5.64;100.00
54038;BME280;39954;48.844;9.726;2023-04-01T02:23:02;94726.66;;;5.64;100.00
54038;BME280;39954;48.844;9.726;2023-04-01T02:24:13;94733.56;;;5.64;100.00
54038;BME280;39954;48.844;9.726;2023-04-01T02:25:24;94734.66;;;5.59;100.00
54038;BME280;39954;48.844;9.726;2023-04-01T02:26:30;94733.19;;;5.55;100.00
54038;BME280;39954;48.844;9.726;2023-04-01T02:27:37;94733.94;;;5.57;100.00
54038;BME280;39954;48.844;9.726;2023-04-01T02:28:43;94736.50;;;5.57;100.00
54038;BME280;39954;48.844;9.726;2023-04-01T02:29:52;94723.06;;;5.52;100.00
54038;BME280;39954;48.844;9.726;2023-04-01T02:30:58;94740.53;;;5.47;100.00
54038;BME280;39954;48.844;9.726;2023-04-01T02:32:07;94731.88;;;5.48;100.00
54038;BME280;39954;48.844;9.726;2023-04-01T02:33:12;94732.88;;;5.46;100.00
54038;BME280;39954;48.844;9.726;2023-04-01T02:34:19;94749.25;;;5.45;100.00
54038;BME280;39954;48.844;9.726;2023-04-01T02:35:24;94737.19;;;5.45;100.00
54038;BME280;39954;48.844;9.726;2023-04-01T02:36:32;94742.34;;;5.45;100.00
54038;BME280;39954;48.844;9.726;2023-04-01T02:37:42;94734.81;;;5.42;100.00
54038;BME280;39954;48.844;9.726;2023-04-01T02:38:52;94744.03;;;5.46;100.00
54038;BME280;39954;48.844;9.726;2023-04-01T02:39:59;94741.53;;;5.45;100.00
54038;BME280;39954;48.844;9.726;2023-04-01T02:41:06;94740.88;;;5.41;100.00
54038;BME280;39954;48.844;9.726;2023-04-01T02:42:11;94741.06;;;5.38;100.00
54038;BME280;39954;48.844;9.726;2023-04-01T02:43:18;94750.44;;;5.39;100.00
54038;BME280;39954;48.844;9.726;2023-04-01T02:46:04;94742.53;;;5.42;100.00
54038;BME280;39954;48.844;9.726;2023-04-01T02:47:08;94738.22;;;5.43;100.00
54038;BME280;39954;48.844;9.726;2023-04-01T02:48:15;94745.13;;;5.42;100.00
54038;BME280;39954;48.844;9.726;2023-04-01T02:49:20;94742.53;;;5.42;100.00
54038;BME280;39954;48.844;9.726;2023-04-01T02:50:27;94744.19;;;5.43;100.00
54038;BME280;39954;48.844;9.726;2023-04-01T02:51:33;94730.59;;;5.41;100.00
54038;BME280;39954;48.844;9.726;2023-04-01T02:54:34;94746.03;;;5.41;100.00
54038;BME280;39954;48.844;9.726;2023-04-01T02:55:38;94741.59;;;5.43;100.00
54038;BME280;39954;48.844;9.726;2023-04-01T02:56:41;94739.97;;;5.42;100.00
54038;BME280;39954;48.844;9.726;2023-04-01T02:57:45;94747.88;;;5.39;100.00
54038;BME280;39954;48.844;9.726;2023-04-01T02:58:47;94751.19;;;5.41;100.00
54038;BME280;39954;48.844;9.726;2023-04-01T02:59:52;94741.72;;;5.42;100.00
54038;BME280;39954;48.844;9.726;2023-04-01T03:00:54;94746.03;;;5.41;100.00
54038;BME280;39954;48.844;9.726;2023-04-01T03:01:59;94744.66;;;5.35;100.00
54038;BME280;39954;48.844;9.726;2023-04-01T03:03:01;94738.81;;;5.32;100.00
54038;BME280;39954;48.844;9.726;2023-04-01T03:04:06;94743.72;;;5.36;100.00
54038;BME280;39954;48.844;9.726;2023-04-01T03:05:08;94744.72;;;5.34;100.00
54038;BME280;39954;48.844;9.726;2023-04-01T03:06:15;94750.81;;;5.33;100.00
54038;BME280;39954;48.844;9.726;2023-04-01T03:07:17;94752.38;;;5.35;100.00
54038;BME280;39954;48.844;9.726;2023-04-01T03:08:22;94742.97;;;5.34;100.00
54038;BME280;39954;48.844;9.726;2023-04-01T03:09:24;94738.75;;;5.33;100.00
54038;BME280;39954;48.844;9.726;2023-04-01T03:10:32;94754.19;;;5.33;100.00
54038;BME280;39954;48.844;9.726;2023-04-01T03:11:34;94741.91;;;5.38;100.00
54038;BME280;39954;48.844;9.726;2023-04-01T03:12:39;94742.72;;;5.39;100.00
54038;BME280;39954;48.844;9.726;2023-04-01T03:13:41;94741.78;;;5.40;100.00
54038;BME280;39954;48.844;9.726;2023-04-01T03:14:46;94741.91;;;5.38;100.00
54038;BME280;39954;48.844;9.726;2023-04-01T03:15:48;94757.34;;;5.38;100.00
54038;BME280;39954;48.844;9.726;2023-04-01T03:16:52;94744.53;;;5.37;100.00
54038;BME280;39954;48.844;9.726;2023-04-01T03:17:55;94754.19;;;5.33;100.00
54038;BME280;39954;48.844;9.726;2023-04-01T03:18:59;94740.41;;;5.34;100.00
54038;BME280;39954;48.844;9.726;2023-04-01T03:20:04;94751.56;;;5.35;100.00
54038;BME280;39954;48.844;9.726;2023-04-01T03:21:17;94745.38;;;5.37;100.00
54038;BME280;39954;48.844;9.726;2023-04-01T03:22:20;94741.06;;;5.38;100.00
54038;BME280;39954;48.844;9.726;2023-04-01T03:23:24;94739.56;;;5.34;100.00
54038;BME280;39954;48.844;9.726;2023-04-01T03:24:26;94751.56;;;5.35;100.00
54038;BME280;39954;48.844;9.726;2023-04-01T03:25:34;94740.69;;;5.30;100.00
54038;BME280;39954;48.844;9.726;2023-04-01T03:26:36;94747.66;;;5.28;100.00
54038;BME280;39954;48.844;9.726;2023-04-01T03:29:30;94746.25;;;5.22;100.00
54038;BME280;39954;48.844;9.726;2023-04-01T03:30:35;94741.19;;;5.21;100.00
54038;BME280;39954;48.844;9.726;2023-04-01T03:31:37;94754.06;;;5.21;100.00
54038;BME280;39954;48.844;9.726;2023-04-01T03:32:42;94747.09;;;5.23;100.00
54038;BME280;39954;48.844;9.726;2023-04-01T03:33:44;94742.69;;;5.25;100.00
54038;BME280;39954;48.844;9.726;2023-04-01T03:34:49;94746.91;;;5.26;100.00
54038;BME280;39954;48.844;9.726;2023-04-01T03:35:51;94752.81;;;5.28;100.00
54038;BME280;39954;48.844;9.726;2023-04-01T03:36:56;94740.84;;;5.27;100.00
54038;BME280;39954;48.844;9.726;2023-04-01T03:38:01;94752.63;;;5.31;100.00
54038;BME280;39954;48.844;9.726;2023-04-01T03:39:03;94758.53;;;5.33;100.00
54038;BME280;39954;48.844;9.726;2023-04-01T03:40:09;94742.91;;;5.36;100.00
54038;BME280;39954;48.844;9.726;2023-04-01T03:41:15;94743.06;;;5.33;100.00
54038;BME280;39954;48.844;9.726;2023-04-01T03:42:20;94750.63;;;5.36;100.00
54038;BME280;39954;48.844;9.726;2023-04-01T03:43:22;94745.47;;;5.36;100.00
54038;BME280;39954;48.844;9.726;2023-04-01T03:44:30;94754.84;;;5.37;100.00
54038;BME280;39954;48.844;9.726;2023-04-01T03:45:32;94740.31;;;5.36;100.00
54038;BME280;39954;48.844;9.726;2023-04-01T03:46:37;94744.53;;;5.37;100.00
54038;BME280;39954;48.844;9.726;2023-04-01T03:47:39;94741.25;;;5.35;100.00
54038;BME280;39954;48.844;9.726;2023-04-01T03:48:44;94746.47;;;5.33;100.00
54038;BME280;39954;48.844;9.726;2023-04-01T03:49:46;94748.47;;;5.28;100.00
54038;BME280;39954;48.844;9.726;2023-04-01T03:50:51;94745.25;;;5.25;100.00
54038;BME280;39954;48.844;9.726;2023-04-01T03:51:53;94746.91;;;5.26;100.00
54038;BME280;39954;48.844;9.726;2023-04-01T03:52:57;94744.34;;;5.26;100.00
54038;BME280;39954;48.844;9.726;2023-04-01T03:54:00;94751.16;;;5.27;100.00
54038;BME280;39954;48.844;9.726;2023-04-01T03:55:05;94746.09;;;5.25;100.00
54038;BME280;39954;48.844;9.726;2023-04-01T03:56:08;94757.22;;;5.26;100.00
54038;BME280;39954;48.844;9.726;2023-04-01T03:57:15;94755.47;;;5.26;100.00
54038;BME280;39954;48.844;9.726;2023-04-01T03:58:20;94746.09;;;5.25;100.00
54038;BME280;39954;48.844;9.726;2023-04-01T03:59:22;94744.50;;;5.23;100.00
54038;BME280;39954;48.844;9.726;2023-04-01T04:00:27;94754.06;;;5.21;100.00
54038;BME280;39954;48.844;9.726;2023-04-01T04:01:29;94757.00;;;5.14;100.00
54038;BME280;39954;48.844;9.726;2023-04-01T04:02:34;94754.25;;;5.18;100.00
54038;BME280;39954;48.844;9.726;2023-04-01T04:03:37;94755.91;;;5.19;100.00
54038;BME280;39954;48.844;9.726;2023-04-01T04:04:42;94756.81;;;5.18;100.00
54038;BME280;39954;48.844;9.726;2023-04-01T04:05:47;94757.63;;;5.18;100.00
54038;BME280;39954;48.844;9.726;2023-04-01T04:06:52;94761.72;;;5.22;100.00
54038;BME280;39954;48.844;9.726;2023-04-01T04:07:54;94749.75;;;5.21;100.00
54038;BME280;39954;48.844;9.726;2023-04-01T04:08:59;94744.75;;;5.18;100.00
54038;BME280;39954;48.844;9.726;2023-04-01T04:10:01;94741.28;;;5.19;100.00
54038;BME280;39954;48.844;9.726;2023-04-01T04:11:06;94742.13;;;5.20;100.00
54038;BME280;39954;48.844;9.726;2023-04-01T04:12:08;94743.22;;;5.15;100.00
54038;BME280;39954;48.844;9.726;2023-04-01T04:13:15;94750.59;;;5.22;100.00
54038;BME280;39954;48.844;9.726;2023-04-01T04:14:17;94745.50;;;5.20;100.00
54038;BME280;39954;48.844;9.726;2023-04-01T04:15:22;94747.19;;;5.21;100.00
54038;BME280;39954;48.844;9.726;2023-04-01T04:16:25;94747.25;;;5.20;100.00
54038;BME280;39954;48.844;9.726;2023-04-01T04:17:30;94748.38;;;5.15;100.00
54038;BME280;39954;48.844;9.726;2023-04-01T04:18:32;94739.78;;;5.15;100.00
54038;BME280;39954;48.844;9.726;2023-04-01T04:19:37;94746.78;;;5.13;100.00
54038;BME280;39954;48.844;9.726;2023-04-01T04:20:43;94741.06;;;5.08;100.00
54038;BME280;39954;48.844;9.726;2023-04-01T04:21:48;94738.00;;;5.01;100.00
54038;BME280;39954;48.844;9.726;2023-04-01T04:22:53;94733.94;;;4.97;100.00
54038;BME280;39954;48.844;9.726;2023-04-01T04:23:55;94742.66;;;4.94;100.00
54038;BME280;39954;48.844;9.726;2023-04-01T04:25:00;94726.22;;;4.97;100.00
54038;BME280;39954;48.844;9.726;2023-04-01T04:26:04;94726.22;;;4.97;100.00
54038;BME280;39954;48.844;9.726;2023-04-01T04:27:09;94736.03;;;4.90;100.00
54038;BME280;39954;48.844;9.726;2023-04-01T04:28:11;94738.69;;;4.89;100.00
54038;BME280;39954;48.844;9.726;2023-04-01T04:29:18;94731.06;;;4.87;100.00
54038;BME280;39954;48.844;9.726;2023-04-01T04:30:21;94735.19;;;4.90;100.00
54038;BME280;39954;48.844;9.726;2023-04-01T04:31:26;94741.84;;;4.94;100.00
54038;BME280;39954;48.844;9.726;2023-04-01T04:32:30;94724.00;;;4.91;100.00
54038;BME280;39954;48.844;9.726;2023-04-01T04:33:33;94728.22;;;4.92;100.00
54038;BME280;39954;48.844;9.726;2023-04-01T04:34:38;94738.50;;;4.92;100.00
54038;BME280;39954;48.844;9.726;2023-04-01T04:35:40;94736.88;;;4.91;100.00
54038;BME280;39954;48.844;9.726;2023-04-01T04:36:45;94735.19;;;4.90;100.00
54038;BME280;39954;48.844;9.726;2023-04-01T04:37:47;94731.06;;;4.87;100.00
54038;BME280;39954;48.844;9.726;2023-04-01T04:38:52;94741.25;;;4.89;100.00
54038;BME280;39954;48.844;9.726;2023-04-01T04:39:54;94742.19;;;4.88;100.00
54038;BME280;39954;48.844;9.726;2023-04-01T04:40:58;94739.44;;;4.91;100.00
54038;BME280;39954;48.844;9.726;2023-04-01T04:42:00;94740.34;;;4.90;100.00
54038;BME280;39954;48.844;9.726;2023-04-01T04:43:05;94729.31;;;4.88;100.00
54038;BME280;39954;48.844;9.726;2023-04-01T04:44:08;94740.03;;;4.96;100.00
54038;BME280;39954;48.844;9.726;2023-04-01T04:45:15;94738.34;;;4.95;100.00
54038;BME280;39954;48.844;9.726;2023-04-01T04:46:18;94736.03;;;4.90;100.00
54038;BME280;39954;48.844;9.726;2023-04-01T04:47:23;94739.50;;;4.89;100.00
54038;BME280;39954;48.844;9.726;2023-04-01T04:48:25;94742.03;;;4.91;100.00
54038;BME280;39954;48.844;9.726;2023-04-01T04:49:29;94739.50;;;4.89;100.00
54038;BME280;39954;48.844;9.726;2023-04-01T04:50:31;94743.50;;;4.95;100.00
54038;BME280;39954;48.844;9.726;2023-04-01T04:51:36;94748.63;;;4.95;100.00
54038;BME280;39954;48.844;9.726;2023-04-01T04:52:41;94746.06;;;4.95;100.00
54038;BME280;39954;48.844;9.726;2023-04-01T04:53:44;94740.03;;;4.96;100.00
54038;BME280;39954;48.844;9.726;2023-04-01T04:54:51;94746.06;;;4.95;100.00
54038;BME280;39954;48.844;9.726;2023-04-01T04:55:53;94745.34;;;4.93;100.00
54038;BME280;39954;48.844;9.726;2023-04-01T04:56:57;94742.50;;;4.98;100.00
54038;BME280;39954;48.844;9.726;2023-04-01T04:57:59;94750.31;;;4.96;100.00
54038;BME280;39954;48.844;9.726;2023-04-01T04:59:05;94744.50;;;4.92;100.00
54038;BME280;39954;48.844;9.726;2023-04-01T05:00:09;94743.50;;;4.95;100.00
54038;BME280;39954;48.844;9.726;2023-04-01T05:01:17;94742.66;;;4.94;100.00
54038;BME280;39954;48.844;9.726;2023-04-01T05:02:20;94745.88;;;4.98;100.00
54038;BME280;39954;48.844;9.726;2023-04-01T05:03:25;94741.50;;;5.00;100.00
54038;BME280;39954;48.844;9.726;2023-04-01T05:04:27;94750.31;;;4.96;100.00
54038;BME280;39954;48.844;9.726;2023-04-01T05:05:31;94751.63;;;5.03;100.00
54038;BME280;39954;48.844;9.726;2023-04-01T05:06:34;94754.13;;;5.05;100.00
54038;BME280;39954;48.844;9.726;2023-04-01T05:07:39;94746.75;;;4.99;100.00
54038;BME280;39954;48.844;9.726;2023-04-01T05:08:41;94743.00;;;5.04;100.00
54038;BME280;39954;48.844;9.726;2023-04-01T05:09:46;94749.78;;;5.05;100.00
54038;BME280;39954;48.844;9.726;2023-04-01T05:10:48;94746.28;;;5.06;100.00
54038;BME280;39954;48.844;9.726;2023-04-01T05:11:53;94744.25;;;4.97;100.00
54038;BME280;39954;48.844;9.726;2023-04-01T05:12:55;94748.28;;;5.01;100.00
54038;BME280;39954;48.844;9.726;2023-04-01T05:14:00;94750.78;;;5.03;100.00
54038;BME280;39954;48.844;9.726;2023-04-01T05:15:03;94752.19;;;5.08;100.00
54038;BME280;39954;48.844;9.726;2023-04-01T05:16:08;94765.13;;;5.07;100.00
54038;BME280;39954;48.844;9.726;2023-04-01T05:17:13;94741.13;;;5.06;100.00
54038;BME280;39954;48.844;9.726;2023-04-01T05:18:42;94747.97;;;5.07;100.00
54038;BME280;39954;48.844;9.726;2023-04-01T05:19:47;94730.13;;;5.04;100.00
54038;BME280;39954;48.844;9.726;2023-04-01T05:20:51;94748.69;;;5.09;100.00
54038;BME280;39954;48.844;9.726;2023-04-01T05:21:56;94744.28;;;5.11;100.00
54038;BME280;39954;48.844;9.726;2023-04-01T05:22:59;94746.03;;;5.11;100.00
54038;BME280;39954;48.844;9.726;2023-04-01T05:24:07;94745.88;;;5.14;100.00
54038;BME280;39954;48.844;9.726;2023-04-01T05:25:11;94735.56;;;5.14;100.00
54038;BME280;39954;48.844;9.726;2023-04-01T05:26:14;94744.28;;;5.11;100.00
54038;BME280;39954;48.844;9.726;2023-04-01T05:27:19;94741.06;;;5.08;100.00
54038;BME280;39954;48.844;9.726;2023-04-01T05:28:21;94743.53;;;5.09;100.00
54038;BME280;39954;48.844;9.726;2023-04-01T05:29:26;94747.69;;;5.12;100.00
54038;BME280;39954;48.844;9.726;2023-04-01T05:30:28;94733.00;;;5.14;100.00
54038;BME280;39954;48.844;9.726;2023-04-01T05:31:33;94744.88;;;5.16;100.00
54038;BME280;39954;48.844;9.726;2023-04-01T05:32:37;94742.38;;;5.15;100.00
54038;BME280;39954;48.844;9.726;2023-04-01T05:33:42;94740.78;;;5.12;100.00
54038;BME280;39954;48.844;9.726;2023-04-01T05:34:44;94739.78;;;5.15;100.00
54038;BME280;39954;48.844;9.726;2023-04-01T05:35:49;94741.38;;;5.18;100.00
54038;BME280;39954;48.844;9.726;2023-04-01T05:36:51;94731.16;;;5.16;100.00
54038;BME280;39954;48.844;9.726;2023-04-01T05:37:56;94741.94;;;5.23;100.00
54038;BME280;39954;48.844;9.726;2023-04-01T05:38:58;94738.28;;;5.27;100.00
54038;BME280;39954;48.844;9.726;2023-04-01T05:40:04;94733.97;;;5.27;100.00
54038;BME280;39954;48.844;9.726;2023-04-01T05:41:06;94734.84;;;5.26;100.00
54038;BME280;39954;48.844;9.726;2023-04-01T05:42:11;94734.78;;;5.28;100.00
54038;BME280;39954;48.844;9.726;2023-04-01T05:43:13;94733.84;;;5.29;100.00
54038;BME280;39954;48.844;9.726;2023-04-01T05:44:18;94744.53;;;5.37;100.00
54038;BME280;39954;48.844;9.726;2023-04-01T05:45:20;94726.69;;;5.34;100.00
54038;BME280;39954;48.844;9.726;2023-04-01T05:46:25;94741.16;;;5.36;100.00
54038;BME280;39954;48.844;9.726;2023-04-01T05:47:30;94735.63;;;5.43;100.00
54038;BME280;39954;48.844;9.726;2023-04-01T05:48:35;94730.59;;;5.41;100.00
54038;BME280;39954;48.844;9.726;2023-04-01T05:49:40;94732.03;;;5.45;100.00
54038;BME280;39954;48.844;9.726;2023-04-01T05:50:42;94723.75;;;5.40;100.00
54038;BME280;39954;48.844;9.726;2023-04-01T05:51:46;94730.41;;;5.44;100.00
54038;BME280;39954;48.844;9.726;2023-04-01T05:52:48;94731.03;;;5.48;100.00
54038;BME280;39954;48.844;9.726;2023-04-01T05:53:53;94737.03;;;5.48;100.00
54038;BME280;39954;48.844;9.726;2023-04-01T05:54:55;94735.25;;;5.49;100.00
54038;BME280;39954;48.844;9.726;2023-04-01T05:56:02;94741.16;;;5.51;100.00
54038;BME280;39954;48.844;9.726;2023-04-01T05:57:05;94740.53;;;5.47;100.00
54038;BME280;39954;48.844;9.726;2023-04-01T05:58:09;94734.72;;;5.44;100.00
54038;BME280;39954;48.844;9.726;2023-04-01T05:59:12;94731.78;;;5.50;100.00
54038;BME280;39954;48.844;9.726;2023-04-01T06:00:17;94734.19;;;5.53;100.00
54038;BME280;39954;48.844;9.726;2023-04-01T06:01:21;94737.41;;;5.56;100.00
54038;BME280;39954;48.844;9.726;2023-04-01T06:02:26;94732.25;;;5.56;100.00